Brunswick Executive Airport (KBXM)
Brunswick, ME
Field Elevation: 72
Lat: 43°53.54N  Long: 69°56.33W
CTAF/Unicom Freq: 122.7250
   
    
Weather Advisories
2019-07-21   17:37 Z
Altimeter 29.61" Hg
Wind 340° @ 12 KT
Gusts 16 KT
Visibility 10 SM
Ceiling CLR
Temperature 33° C (91° F)
Dewpoint 22° C (72° F)
Relative Humidity 53%
Density Altitude 2,400 feet
Condensation Altitude 5,600 feet
Heat Index: 37° C (99° F)
Wind and Runways
Indicated Runway = 01
Headwind = 10 kt
Crosswind = 6 kt
History
 
 
 
More Info
All DigiWx sites map
 
NOAA Forecast
 
Airport IQ 5010
(OCNJ) Ocean City, NJ
(39N) Princeton, NJ
 
about DigiWx
 
FAA Disclaimer: The data displayed is for advisory purposes only and is not to be used for flight planning or operations. For official data, please call (not available) to hear the current automated AWOS voice message.
  METAR KBXM 211737Z AUTO 34012G16KT 10 SM CLR 33/22 A2961